createdAt,value
2019-05-11T00:00:29.615Z,12.63
2019-05-11T00:04:37.437Z,12.51
2019-05-11T00:08:46.200Z,12.37
2019-05-11T00:12:53.867Z,12.31
2019-05-11T00:17:02.116Z,12.32
2019-05-11T00:21:10.190Z,12.17
2019-05-11T00:25:17.920Z,12.00
2019-05-11T00:29:26.013Z,11.95
2019-05-11T00:33:34.655Z,11.90
2019-05-11T00:37:42.673Z,11.97
2019-05-11T00:41:50.597Z,12.03
2019-05-11T00:45:58.903Z,11.90
2019-05-11T00:50:08.154Z,11.86
2019-05-11T00:54:16.364Z,11.76
2019-05-11T00:58:24.631Z,11.73
2019-05-11T01:02:32.326Z,11.60
2019-05-11T01:06:40.604Z,11.55
2019-05-11T01:10:48.428Z,11.56
2019-05-11T01:14:56.239Z,11.52
2019-05-11T01:19:04.159Z,11.57
2019-05-11T01:23:11.858Z,11.50
2019-05-11T01:27:20.685Z,11.54
2019-05-11T01:31:29.321Z,11.59
2019-05-11T01:35:37.524Z,11.55
2019-05-11T01:39:45.758Z,11.43
2019-05-11T01:43:54.292Z,11.42
2019-05-11T01:48:02.007Z,11.52
2019-05-11T01:52:10.822Z,11.58
2019-05-11T01:56:18.534Z,11.66
2019-05-11T02:00:26.342Z,11.78
2019-05-11T02:04:34.569Z,11.81
2019-05-11T02:08:42.180Z,11.84
2019-05-11T02:12:50.374Z,11.88
2019-05-11T02:16:58.522Z,11.93
2019-05-11T02:21:06.126Z,11.96
2019-05-11T02:25:15.043Z,12.11
2019-05-11T02:29:23.279Z,12.07
2019-05-11T02:33:30.893Z,12.08
2019-05-11T02:37:40.429Z,11.98
2019-05-11T02:41:48.848Z,12.01
2019-05-11T02:45:57.175Z,12.09
2019-05-11T02:50:05.702Z,12.07
2019-05-11T02:54:14.340Z,12.07
2019-05-11T02:58:22.560Z,12.16
2019-05-11T03:02:30.564Z,12.09
2019-05-11T03:06:38.580Z,12.12
2019-05-11T03:10:46.809Z,12.35
2019-05-11T03:14:54.502Z,12.46
2019-05-11T03:19:01.957Z,12.65
2019-05-11T03:23:10.545Z,12.83
2019-05-11T03:27:18.545Z,12.88
2019-05-11T03:31:26.873Z,12.83
2019-05-11T03:35:35.070Z,12.94
2019-05-11T03:39:42.804Z,12.97
2019-05-11T03:43:51.016Z,13.11
2019-05-11T03:47:59.069Z,13.09
2019-05-11T03:52:07.164Z,13.16
2019-05-11T03:56:15.544Z,13.11
2019-05-11T04:00:24.209Z,13.10
2019-05-11T04:04:31.920Z,13.05
2019-05-11T04:08:39.819Z,13.11
2019-05-11T04:12:47.536Z,13.08
2019-05-11T04:16:55.746Z,13.24
2019-05-11T04:21:07.138Z,13.34
2019-05-11T04:25:15.051Z,13.49
2019-05-11T04:29:23.178Z,13.50
2019-05-11T04:33:33.191Z,13.74
2019-05-11T04:37:40.744Z,13.91
2019-05-11T04:41:49.172Z,13.65
2019-05-11T04:45:56.856Z,13.83
2019-05-11T04:50:05.115Z,14.11
2019-05-11T04:54:13.540Z,14.34
2019-05-11T04:58:21.117Z,14.79
2019-05-11T05:02:29.338Z,14.86
2019-05-11T05:06:39.003Z,15.06
2019-05-11T05:10:46.693Z,14.99
2019-05-11T05:14:54.555Z,15.03
2019-05-11T05:19:02.114Z,15.18
2019-05-11T05:23:10.326Z,15.29
2019-05-11T05:27:18.443Z,15.48
2019-05-11T05:31:25.942Z,15.34
2019-05-11T05:35:34.402Z,15.22
2019-05-11T05:39:42.566Z,15.18
2019-05-11T05:43:51.612Z,15.21
2019-05-11T05:48:00.019Z,15.43
2019-05-11T05:52:08.763Z,15.59
2019-05-11T05:56:16.497Z,15.90
2019-05-11T06:00:24.274Z,16.10
2019-05-11T06:04:32.743Z,16.19
2019-05-11T06:08:43.300Z,16.31
2019-05-11T06:12:51.334Z,16.16
2019-05-11T06:16:58.933Z,16.13
2019-05-11T06:21:07.050Z,16.24
2019-05-11T06:25:14.974Z,16.64
2019-05-11T06:29:22.681Z,16.67
2019-05-11T06:33:30.506Z,16.63
2019-05-11T06:37:38.081Z,16.70
2019-05-11T06:41:46.045Z,16.40
2019-05-11T06:45:54.124Z,16.36
2019-05-11T06:50:01.821Z,16.17
2019-05-11T06:54:11.254Z,16.25
2019-05-11T06:58:19.392Z,16.20
2019-05-11T07:02:27.220Z,16.27
2019-05-11T07:06:35.411Z,16.19
2019-05-11T07:10:43.011Z,16.19
2019-05-11T07:14:51.748Z,16.34
2019-05-11T07:19:00.393Z,16.36
2019-05-11T07:23:08.297Z,16.31
2019-05-11T07:27:17.937Z,17.14
2019-05-11T07:31:26.355Z,17.28
2019-05-11T07:35:34.613Z,18.03
2019-05-11T07:39:42.202Z,18.49
2019-05-11T07:43:50.145Z,18.17
2019-05-11T07:47:59.036Z,18.23
2019-05-11T07:52:07.976Z,18.23
2019-05-11T07:56:18.523Z,18.24
2019-05-11T08:00:28.014Z,18.58
2019-05-11T08:04:37.855Z,19.50
2019-05-11T08:08:48.984Z,19.65
2019-05-11T08:12:58.725Z,18.73
2019-05-11T08:17:08.406Z,17.83
2019-05-11T08:21:17.652Z,18.22
2019-05-11T08:25:25.205Z,18.80
2019-05-11T08:29:32.906Z,19.12
2019-05-11T08:33:40.949Z,20.13
2019-05-11T08:37:49.855Z,20.28
2019-05-11T08:41:58.990Z,19.45
2019-05-11T08:46:08.039Z,19.47
2019-05-11T08:50:18.507Z,18.60
2019-05-11T08:54:25.362Z,17.86
2019-05-11T08:58:33.249Z,17.55
2019-05-11T09:02:41.443Z,17.55
2019-05-11T09:06:49.036Z,17.43
2019-05-11T09:10:58.204Z,17.58
2019-05-11T09:15:08.755Z,18.09
2019-05-11T09:19:17.817Z,18.09
2019-05-11T09:23:34.504Z,19.40
2019-05-11T09:27:37.596Z,20.07
2019-05-11T09:31:45.954Z,20.36
2019-05-11T09:35:54.467Z,20.12
2019-05-11T09:40:02.697Z,19.74
2019-05-11T09:44:10.587Z,19.38
2019-05-11T09:48:18.812Z,19.32
2019-05-11T09:52:32.505Z,19.75
2019-05-11T09:56:40.378Z,20.17
2019-05-11T10:00:48.903Z,20.51
2019-05-11T10:04:57.849Z,20.56
2019-05-11T10:09:08.341Z,21.07
2019-05-11T10:13:18.559Z,20.80
2019-05-11T10:17:28.636Z,21.66
2019-05-11T10:21:38.483Z,20.68
2019-05-11T10:25:47.941Z,20.84
2019-05-11T10:29:55.474Z,20.94
2019-05-11T10:34:03.991Z,21.54
2019-05-11T10:38:11.458Z,22.08
2019-05-11T10:42:19.947Z,22.81
2019-05-11T10:46:28.692Z,23.86
2019-05-11T10:50:38.071Z,22.91
2019-05-11T10:54:47.828Z,22.25
2019-05-11T10:58:55.774Z,21.96
2019-05-11T11:03:03.472Z,21.54
2019-05-11T11:07:11.673Z,21.34
2019-05-11T11:11:19.500Z,20.82
2019-05-11T11:15:29.031Z,21.32
2019-05-11T11:19:38.084Z,21.38
2019-05-11T11:23:48.071Z,20.76
2019-05-11T11:27:57.785Z,20.25
2019-05-11T11:32:05.328Z,20.10
2019-05-11T11:36:13.527Z,22.05
2019-05-11T11:40:21.555Z,22.03
2019-05-11T11:44:29.250Z,21.42
2019-05-11T11:48:38.545Z,21.10
2019-05-11T11:52:47.697Z,20.94
2019-05-11T11:56:55.746Z,20.44
2019-05-11T12:01:04.008Z,19.77
2019-05-11T12:05:11.677Z,19.38
2019-05-11T12:09:19.814Z,19.32
2019-05-11T12:13:29.738Z,19.22
2019-05-11T12:17:37.678Z,18.51
2019-05-11T12:21:45.813Z,17.60
2019-05-11T12:25:53.590Z,17.57
2019-05-11T12:30:01.512Z,17.57
2019-05-11T12:34:09.944Z,17.57
2019-05-11T12:38:18.321Z,17.91
2019-05-11T12:42:28.396Z,17.91
2019-05-11T12:46:37.369Z,17.70
2019-05-11T12:50:48.281Z,17.65
2019-05-11T12:54:55.852Z,17.48
2019-05-11T12:59:03.444Z,17.41
2019-05-11T13:03:10.809Z,17.42
2019-05-11T13:07:21.119Z,17.52
2019-05-11T13:11:28.807Z,17.38
2019-05-11T13:15:38.754Z,17.38
2019-05-11T13:19:48.038Z,17.26
2019-05-11T13:23:57.773Z,16.76
2019-05-11T13:28:08.396Z,16.30
2019-05-11T13:32:15.558Z,16.09
2019-05-11T13:36:23.782Z,16.17
2019-05-11T13:40:31.698Z,16.58
2019-05-11T13:44:40.098Z,17.02
2019-05-11T13:48:48.548Z,17.67
2019-05-11T13:52:58.428Z,17.67
2019-05-11T13:57:08.028Z,17.92
2019-05-11T14:01:18.185Z,18.23
2019-05-11T14:05:25.108Z,18.75
2019-05-11T14:09:33.116Z,19.14
2019-05-11T14:13:40.823Z,19.48
2019-05-11T14:18:04.461Z,19.81
2019-05-11T14:22:00.453Z,19.84
2019-05-11T14:26:09.292Z,19.70
2019-05-11T14:30:19.157Z,19.87
2019-05-11T14:34:28.386Z,19.95
2019-05-11T14:38:38.085Z,19.98
2019-05-11T14:42:48.736Z,19.96
2019-05-11T14:46:56.558Z,19.85
2019-05-11T14:51:05.132Z,18.89
2019-05-11T14:55:13.507Z,18.09
2019-05-11T14:59:21.058Z,17.87
2019-05-11T15:03:29.383Z,17.67
2019-05-11T15:07:38.591Z,17.55
2019-05-11T15:11:48.092Z,17.49
2019-05-11T15:15:58.652Z,17.46
2019-05-11T15:20:08.252Z,17.21
2019-05-11T15:24:18.527Z,17.21
2019-05-11T15:28:28.434Z,17.23
2019-05-11T15:32:37.488Z,17.19
2019-05-11T15:36:45.438Z,16.97
2019-05-11T15:40:53.201Z,17.05
2019-05-11T15:45:00.941Z,16.99
2019-05-11T15:49:09.086Z,17.02
2019-05-11T15:53:17.826Z,16.95
2019-05-11T15:57:27.977Z,16.93
2019-05-11T16:01:38.322Z,17.12
2019-05-11T16:05:47.756Z,17.44
2019-05-11T16:09:54.952Z,17.63
2019-05-11T16:14:02.873Z,17.75
2019-05-11T16:18:11.069Z,17.37
2019-05-11T16:22:21.123Z,17.37
2019-05-11T16:26:28.280Z,17.28
2019-05-11T16:30:37.858Z,17.14
2019-05-11T16:34:45.692Z,17.06
2019-05-11T16:38:53.706Z,16.97
2019-05-11T16:43:02.127Z,16.94
2019-05-11T16:47:09.631Z,16.90
2019-05-11T16:51:17.920Z,16.67
2019-05-11T16:55:26.376Z,16.59
2019-05-11T16:59:34.087Z,16.66
2019-05-11T17:03:42.719Z,16.73
2019-05-11T17:07:50.926Z,16.55
2019-05-11T17:11:58.761Z,16.44
2019-05-11T17:16:08.686Z,16.41
2019-05-11T17:20:18.749Z,16.17
2019-05-11T17:24:28.216Z,16.00
2019-05-11T17:28:37.887Z,15.88
2019-05-11T17:32:45.698Z,15.84
2019-05-11T17:36:57.066Z,15.86
2019-05-11T17:41:03.364Z,15.64
2019-05-11T17:45:12.923Z,15.45
2019-05-11T17:49:21.220Z,15.46
2019-05-11T17:53:29.285Z,15.39
2019-05-11T17:57:38.245Z,15.22
2019-05-11T18:01:46.898Z,15.11
2019-05-11T18:05:54.521Z,14.97
2019-05-11T18:10:03.563Z,14.98
2019-05-11T18:14:11.979Z,14.95
2019-05-11T18:18:19.599Z,14.82
2019-05-11T18:22:28.508Z,14.57
2019-05-11T18:26:38.138Z,14.61
2019-05-11T18:30:47.955Z,14.82
2019-05-11T18:34:55.697Z,14.82
2019-05-11T18:39:05.018Z,14.84
2019-05-11T18:43:12.827Z,14.37
2019-05-11T18:47:21.308Z,14.31
2019-05-11T18:51:29.350Z,14.34
2019-05-11T18:55:37.938Z,14.34
2019-05-11T18:59:48.280Z,14.33
2019-05-11T19:03:55.347Z,14.23
2019-05-11T19:08:03.559Z,14.17
2019-05-11T19:12:12.381Z,14.19
2019-05-11T19:16:20.534Z,14.16
2019-05-11T19:20:28.561Z,14.19
2019-05-11T19:24:38.155Z,14.19
2019-05-11T19:28:46.194Z,14.12
2019-05-11T19:32:53.884Z,14.02
2019-05-11T19:37:02.126Z,13.91
2019-05-11T19:41:10.323Z,13.92
2019-05-11T19:45:18.458Z,13.93
2019-05-11T19:49:27.914Z,13.92
2019-05-11T19:53:38.699Z,13.74
2019-05-11T19:57:48.220Z,13.70
2019-05-11T20:01:59.537Z,13.65
2019-05-11T20:06:08.725Z,13.66
2019-05-11T20:10:18.839Z,13.65
2019-05-11T20:14:28.359Z,13.54
2019-05-11T20:18:36.271Z,13.44
2019-05-11T20:22:44.198Z,13.48
2019-05-11T20:26:52.532Z,13.49
2019-05-11T20:31:00.224Z,13.30
2019-05-11T20:35:08.955Z,13.31
2019-05-11T20:39:17.915Z,13.41
2019-05-11T20:43:27.869Z,13.36
2019-05-11T20:47:38.017Z,13.28
2019-05-11T20:51:45.045Z,13.18
2019-05-11T20:55:53.237Z,13.02
2019-05-11T21:00:01.261Z,13.04
2019-05-11T21:04:08.890Z,12.98
2019-05-11T21:08:17.780Z,13.04
2019-05-11T21:12:28.685Z,12.96
2019-05-11T21:16:38.422Z,12.99
2019-05-11T21:20:48.201Z,13.07
2019-05-11T21:24:58.164Z,13.14
2019-05-11T21:29:08.389Z,13.19
2019-05-11T21:33:17.767Z,13.20
2019-05-11T21:37:27.753Z,13.07
2019-05-11T21:41:34.903Z,12.91
2019-05-11T21:45:42.942Z,12.83
2019-05-11T21:49:50.928Z,12.83
2019-05-11T21:53:58.649Z,12.82
2019-05-11T21:58:08.891Z,12.81
2019-05-11T22:02:18.346Z,12.85
2019-05-11T22:06:30.255Z,12.92
2019-05-11T22:10:38.577Z,13.02
2019-05-11T22:14:48.796Z,13.01
2019-05-11T22:18:57.962Z,13.03
2019-05-11T22:23:08.484Z,12.99
2019-05-11T22:27:18.383Z,12.93
2019-05-11T22:31:27.842Z,13.03
2019-05-11T22:35:37.587Z,12.98
2019-05-11T22:39:44.638Z,12.97
2019-05-11T22:43:52.742Z,12.89
2019-05-11T22:48:01.192Z,12.80
2019-05-11T22:52:08.876Z,12.78
2019-05-11T22:56:17.519Z,12.79
2019-05-11T23:00:42.534Z,12.89
2019-05-11T23:04:50.227Z,12.91
2019-05-11T23:08:58.818Z,12.71
2019-05-11T23:13:08.314Z,12.75
2019-05-11T23:17:18.309Z,12.84
2019-05-11T23:21:30.043Z,12.79
2019-05-11T23:25:35.722Z,12.78
2019-05-11T23:29:44.237Z,12.68
2019-05-11T23:33:52.071Z,12.63
2019-05-11T23:37:59.772Z,12.57
2019-05-11T23:42:08.045Z,12.46
2019-05-11T23:46:17.599Z,12.40
2019-05-11T23:50:27.882Z,12.36
2019-05-11T23:54:35.171Z,12.26
2019-05-11T23:58:43.317Z,12.13
